APG716 RPVK-RPLL
Flight info
| Callsign | APG716 |
|---|---|
| Flight time | 0h 44m |
| Altitude | 28000 |
| Route | MINOR2P MINOR B473 LAIYA LAIYA5R |
| Aircraft | A320/M-SDE3FGHIRWY/LB1 |
Departure
| Time | 2026-04-25 12:46 |
|---|---|
| Airport | Kalibo International Airport (RPVK) |
Arrival
| Time | 2026-04-25 13:31 |
|---|---|
| Airport | Ninoy Aquino International Airport (RPLL) |
| Time | Latitude | Longitude | Altitude | Speed | Heading |
|---|---|---|---|---|---|
| 2026-04-25 11:55 | 11.68537 | 122.38110 | 20 ft | 0 kts | 349° |
| 2026-04-25 12:38 | 11.68538 | 122.38111 | 23 ft | 1 kts | 2° |
| 2026-04-25 12:38 | 11.68540 | 122.38115 | 25 ft | 0 kts | 48° |
| 2026-04-25 12:39 | 11.68537 | 122.38119 | 25 ft | 1 kts | 103° |
| 2026-04-25 12:39 | 11.68529 | 122.38120 | 25 ft | 3 kts | 169° |
| 2026-04-25 12:39 | 11.68494 | 122.38121 | 23 ft | 5 kts | 162° |
| 2026-04-25 12:39 | 11.68453 | 122.38137 | 22 ft | 9 kts | 191° |
| 2026-04-25 12:40 | 11.68412 | 122.38094 | 21 ft | 9 kts | 230° |
| 2026-04-25 12:40 | 11.68354 | 122.38025 | 21 ft | 15 kts | 228° |
| 2026-04-25 12:40 | 11.68284 | 122.37944 | 23 ft | 15 kts | 229° |
| 2026-04-25 12:40 | 11.68210 | 122.37858 | 21 ft | 18 kts | 229° |
| 2026-04-25 12:41 | 11.68119 | 122.37753 | 22 ft | 21 kts | 229° |
| 2026-04-25 12:41 | 11.68023 | 122.37642 | 23 ft | 22 kts | 228° |
| 2026-04-25 12:41 | 11.67918 | 122.37521 | 23 ft | 24 kts | 229° |
| 2026-04-25 12:41 | 11.67807 | 122.37392 | 24 ft | 25 kts | 229° |
| 2026-04-25 12:42 | 11.67687 | 122.37254 | 22 ft | 27 kts | 229° |
| 2026-04-25 12:42 | 11.67647 | 122.37206 | 22 ft | 27 kts | 229° |
| 2026-04-25 12:42 | 11.67440 | 122.36967 | 21 ft | 27 kts | 229° |
| 2026-04-25 12:42 | 11.67349 | 122.36851 | 22 ft | 16 kts | 236° |
| 2026-04-25 12:43 | 11.67282 | 122.36764 | 20 ft | 12 kts | 230° |
| 2026-04-25 12:43 | 11.67222 | 122.36736 | 21 ft | 5 kts | 210° |
| 2026-04-25 12:43 | 11.67250 | 122.36744 | 21 ft | 0 kts | 49° |
| 2026-04-25 12:44 | 11.67251 | 122.36746 | 21 ft | 0 kts | 49° |
| 2026-04-25 12:45 | 11.67262 | 122.36759 | 22 ft | 14 kts | 49° |
| 2026-04-25 12:45 | 11.68065 | 122.37692 | 24 ft | 148 kts | 49° |
| 2026-04-25 12:46 | 11.68789 | 122.38529 | 486 ft | 158 kts | 49° |
| 2026-04-25 12:46 | 11.69520 | 122.39363 | 1182 ft | 156 kts | 47° |
| 2026-04-25 12:46 | 11.70487 | 122.39845 | 1877 ft | 161 kts | 7° |
| 2026-04-25 12:46 | 11.71614 | 122.39684 | 2499 ft | 164 kts | 354° |
| 2026-04-25 12:47 | 11.72732 | 122.39462 | 3117 ft | 163 kts | 355° |
| 2026-04-25 12:47 | 11.73857 | 122.39248 | 3539 ft | 175 kts | 355° |
| 2026-04-25 12:47 | 11.75133 | 122.39015 | 3788 ft | 197 kts | 355° |
| 2026-04-25 12:47 | 11.76566 | 122.38754 | 3994 ft | 221 kts | 354° |
| 2026-04-25 12:48 | 11.78173 | 122.38462 | 4307 ft | 247 kts | 354° |
| 2026-04-25 12:48 | 11.79945 | 122.38142 | 4744 ft | 269 kts | 354° |
| 2026-04-25 12:48 | 11.81825 | 122.37799 | 5466 ft | 277 kts | 353° |
| 2026-04-25 12:48 | 11.83740 | 122.37445 | 6325 ft | 281 kts | 353° |
| 2026-04-25 12:49 | 11.85679 | 122.37086 | 7135 ft | 285 kts | 352° |
| 2026-04-25 12:49 | 11.87644 | 122.36723 | 7950 ft | 288 kts | 352° |
| 2026-04-25 12:49 | 11.88955 | 122.36480 | 8490 ft | 290 kts | 352° |
| 2026-04-25 12:49 | 11.91611 | 122.35994 | 9566 ft | 295 kts | 351° |
| 2026-04-25 12:50 | 11.93663 | 122.35622 | 10191 ft | 306 kts | 351° |
| 2026-04-25 12:50 | 11.95838 | 122.35230 | 10419 ft | 329 kts | 351° |
| 2026-04-25 12:50 | 11.97369 | 122.34954 | 10556 ft | 344 kts | 351° |
| 2026-04-25 12:50 | 12.00591 | 122.34368 | 11239 ft | 356 kts | 350° |
| 2026-04-25 12:51 | 12.02199 | 122.33980 | 11669 ft | 360 kts | 344° |
| 2026-04-25 12:51 | 12.04614 | 122.33243 | 12299 ft | 364 kts | 344° |
| 2026-04-25 12:51 | 12.07860 | 122.32252 | 13156 ft | 370 kts | 343° |
| 2026-04-25 12:51 | 12.10347 | 122.31496 | 13784 ft | 374 kts | 343° |
| 2026-04-25 12:52 | 12.12035 | 122.30984 | 14163 ft | 376 kts | 343° |
| 2026-04-25 12:52 | 12.14532 | 122.30228 | 14744 ft | 379 kts | 343° |
| 2026-04-25 12:52 | 12.17071 | 122.29458 | 15326 ft | 381 kts | 343° |
| 2026-04-25 12:52 | 12.19626 | 122.28682 | 15907 ft | 384 kts | 344° |
| 2026-04-25 12:53 | 12.22197 | 122.27903 | 16460 ft | 387 kts | 344° |
| 2026-04-25 12:53 | 12.24788 | 122.27118 | 17030 ft | 390 kts | 344° |
| 2026-04-25 12:53 | 12.27399 | 122.26326 | 17563 ft | 393 kts | 344° |
| 2026-04-25 12:53 | 12.30030 | 122.25526 | 18118 ft | 395 kts | 344° |
| 2026-04-25 12:54 | 12.32682 | 122.24718 | 18590 ft | 398 kts | 344° |
| 2026-04-25 12:54 | 12.35312 | 122.23894 | 19027 ft | 401 kts | 340° |
| 2026-04-25 12:54 | 12.37866 | 122.22698 | 19443 ft | 405 kts | 330° |
| 2026-04-25 12:54 | 12.40235 | 122.21110 | 19869 ft | 408 kts | 326° |
| 2026-04-25 12:55 | 12.42595 | 122.19462 | 20311 ft | 411 kts | 325° |
| 2026-04-25 12:55 | 12.44162 | 122.18367 | 20601 ft | 413 kts | 325° |
| 2026-04-25 12:55 | 12.47362 | 122.16138 | 21179 ft | 417 kts | 325° |
| 2026-04-25 12:55 | 12.49770 | 122.14464 | 21610 ft | 419 kts | 325° |
| 2026-04-25 12:56 | 12.52162 | 122.12799 | 22034 ft | 422 kts | 325° |
| 2026-04-25 12:56 | 12.54596 | 122.11106 | 22456 ft | 425 kts | 325° |
| 2026-04-25 12:56 | 12.57051 | 122.09402 | 22885 ft | 427 kts | 325° |
| 2026-04-25 12:56 | 12.59517 | 122.07689 | 23285 ft | 430 kts | 324° |
| 2026-04-25 12:57 | 12.62002 | 122.05967 | 23667 ft | 433 kts | 324° |
| 2026-04-25 12:57 | 12.64507 | 122.04230 | 23997 ft | 435 kts | 324° |
| 2026-04-25 12:57 | 12.67025 | 122.02482 | 24342 ft | 437 kts | 324° |
| 2026-04-25 12:57 | 12.69553 | 122.00724 | 24687 ft | 439 kts | 324° |
| 2026-04-25 12:58 | 12.72087 | 121.98959 | 25035 ft | 441 kts | 324° |
| 2026-04-25 12:58 | 12.74627 | 121.97188 | 25376 ft | 442 kts | 324° |
| 2026-04-25 12:58 | 12.77149 | 121.95427 | 25703 ft | 444 kts | 324° |
| 2026-04-25 12:58 | 12.79709 | 121.93641 | 26037 ft | 446 kts | 324° |
| 2026-04-25 12:59 | 12.82278 | 121.91850 | 26365 ft | 447 kts | 324° |
| 2026-04-25 12:59 | 12.84862 | 121.90049 | 26694 ft | 449 kts | 324° |
| 2026-04-25 12:59 | 12.87452 | 121.88244 | 27046 ft | 450 kts | 324° |
| 2026-04-25 12:59 | 12.90046 | 121.86436 | 27374 ft | 452 kts | 324° |
| 2026-04-25 13:00 | 12.92651 | 121.84619 | 27702 ft | 453 kts | 323° |
| 2026-04-25 13:00 | 12.94387 | 121.83409 | 27877 ft | 454 kts | 323° |
| 2026-04-25 13:00 | 12.97837 | 121.81005 | 27962 ft | 448 kts | 323° |
| 2026-04-25 13:00 | 13.00410 | 121.79215 | 27959 ft | 445 kts | 323° |
| 2026-04-25 13:01 | 13.02975 | 121.77425 | 27962 ft | 444 kts | 323° |
| 2026-04-25 13:01 | 13.05530 | 121.75642 | 27963 ft | 443 kts | 323° |
| 2026-04-25 13:01 | 13.08081 | 121.73859 | 27963 ft | 443 kts | 323° |
| 2026-04-25 13:01 | 13.10632 | 121.72069 | 27968 ft | 448 kts | 323° |
| 2026-04-25 13:02 | 13.13221 | 121.70243 | 27964 ft | 451 kts | 323° |
| 2026-04-25 13:02 | 13.15779 | 121.68439 | 27963 ft | 450 kts | 323° |
| 2026-04-25 13:02 | 13.18339 | 121.66637 | 27493 ft | 443 kts | 323° |
| 2026-04-25 13:02 | 13.20877 | 121.64863 | 26945 ft | 440 kts | 323° |
| 2026-04-25 13:03 | 13.23416 | 121.63102 | 26490 ft | 438 kts | 324° |
| 2026-04-25 13:03 | 13.25948 | 121.61349 | 26042 ft | 436 kts | 324° |
| 2026-04-25 13:03 | 13.28423 | 121.59632 | 25562 ft | 434 kts | 324° |
| 2026-04-25 13:03 | 13.30919 | 121.57894 | 25043 ft | 431 kts | 324° |
| 2026-04-25 13:04 | 13.33397 | 121.56163 | 24529 ft | 429 kts | 324° |
| 2026-04-25 13:04 | 13.35862 | 121.54433 | 24082 ft | 427 kts | 324° |
| 2026-04-25 13:04 | 13.38307 | 121.52715 | 23645 ft | 425 kts | 324° |
| 2026-04-25 13:04 | 13.40745 | 121.51003 | 23147 ft | 423 kts | 324° |
| 2026-04-25 13:05 | 13.43137 | 121.49323 | 22651 ft | 419 kts | 324° |
| 2026-04-25 13:05 | 13.45546 | 121.47632 | 22139 ft | 416 kts | 324° |
| 2026-04-25 13:05 | 13.47934 | 121.45955 | 21644 ft | 413 kts | 324° |
| 2026-04-25 13:05 | 13.50294 | 121.44297 | 21158 ft | 409 kts | 324° |
| 2026-04-25 13:06 | 13.52640 | 121.42651 | 20678 ft | 405 kts | 324° |
| 2026-04-25 13:06 | 13.54957 | 121.41026 | 20208 ft | 401 kts | 324° |
| 2026-04-25 13:06 | 13.57205 | 121.39448 | 19985 ft | 390 kts | 324° |
| 2026-04-25 13:06 | 13.59391 | 121.37879 | 19959 ft | 374 kts | 323° |
| 2026-04-25 13:07 | 13.61461 | 121.36348 | 19970 ft | 358 kts | 323° |
| 2026-04-25 13:07 | 13.63450 | 121.34856 | 19972 ft | 351 kts | 322° |
| 2026-04-25 13:07 | 13.65417 | 121.33373 | 19972 ft | 349 kts | 322° |
| 2026-04-25 13:07 | 13.67375 | 121.31897 | 19972 ft | 348 kts | 322° |
| 2026-04-25 13:08 | 13.69333 | 121.30424 | 19973 ft | 348 kts | 322° |
| 2026-04-25 13:08 | 13.71267 | 121.28975 | 19973 ft | 348 kts | 322° |
| 2026-04-25 13:08 | 13.73228 | 121.27509 | 19973 ft | 348 kts | 323° |
| 2026-04-25 13:08 | 13.75189 | 121.26048 | 19972 ft | 348 kts | 323° |
| 2026-04-25 13:09 | 13.77150 | 121.24585 | 19974 ft | 348 kts | 323° |
| 2026-04-25 13:09 | 13.79106 | 121.23125 | 19974 ft | 348 kts | 322° |
| 2026-04-25 13:09 | 13.81067 | 121.21661 | 19940 ft | 347 kts | 322° |
| 2026-04-25 13:09 | 13.83016 | 121.20206 | 19592 ft | 344 kts | 323° |
| 2026-04-25 13:10 | 13.84952 | 121.18763 | 19230 ft | 342 kts | 323° |
| 2026-04-25 13:10 | 13.86877 | 121.17329 | 18877 ft | 340 kts | 323° |
| 2026-04-25 13:10 | 13.88786 | 121.15903 | 18541 ft | 338 kts | 323° |
| 2026-04-25 13:10 | 13.90662 | 121.14500 | 18200 ft | 336 kts | 323° |
| 2026-04-25 13:11 | 13.92549 | 121.13089 | 17820 ft | 334 kts | 323° |
| 2026-04-25 13:11 | 13.94424 | 121.11689 | 17453 ft | 332 kts | 323° |
| 2026-04-25 13:11 | 13.96293 | 121.10292 | 17096 ft | 330 kts | 322° |
| 2026-04-25 13:11 | 13.98145 | 121.08908 | 16754 ft | 328 kts | 323° |
| 2026-04-25 13:12 | 13.99993 | 121.07525 | 16418 ft | 326 kts | 323° |
| 2026-04-25 13:12 | 14.01635 | 121.05941 | 16087 ft | 322 kts | 306° |
| 2026-04-25 13:12 | 14.02881 | 121.04063 | 15825 ft | 318 kts | 303° |
| 2026-04-25 13:12 | 14.03707 | 121.02785 | 15613 ft | 315 kts | 303° |
| 2026-04-25 13:13 | 14.05283 | 121.00335 | 15023 ft | 306 kts | 302° |
| 2026-04-25 13:13 | 14.06451 | 120.98512 | 14556 ft | 301 kts | 303° |
| 2026-04-25 13:13 | 14.07598 | 120.96721 | 14107 ft | 297 kts | 303° |
| 2026-04-25 13:13 | 14.08715 | 120.94981 | 13642 ft | 293 kts | 303° |
| 2026-04-25 13:14 | 14.09834 | 120.93238 | 13133 ft | 289 kts | 303° |
| 2026-04-25 13:14 | 14.10940 | 120.91515 | 12634 ft | 286 kts | 303° |
| 2026-04-25 13:14 | 14.12030 | 120.89816 | 12138 ft | 282 kts | 303° |
| 2026-04-25 13:14 | 14.13105 | 120.88138 | 11655 ft | 279 kts | 303° |
| 2026-04-25 13:15 | 14.14170 | 120.86476 | 11178 ft | 275 kts | 303° |
| 2026-04-25 13:15 | 14.15205 | 120.84859 | 10709 ft | 272 kts | 303° |
| 2026-04-25 13:15 | 14.16244 | 120.83239 | 10245 ft | 269 kts | 304° |
| 2026-04-25 13:15 | 14.17270 | 120.81639 | 9776 ft | 265 kts | 304° |
| 2026-04-25 13:16 | 14.18248 | 120.80039 | 9270 ft | 262 kts | 297° |
| 2026-04-25 13:16 | 14.18916 | 120.78303 | 8772 ft | 259 kts | 285° |
| 2026-04-25 13:16 | 14.19212 | 120.76453 | 8284 ft | 265 kts | 273° |
| 2026-04-25 13:16 | 14.19119 | 120.74567 | 7805 ft | 270 kts | 261° |
| 2026-04-25 13:17 | 14.18610 | 120.72688 | 7392 ft | 272 kts | 248° |
| 2026-04-25 13:17 | 14.17735 | 120.70967 | 7064 ft | 270 kts | 239° |
| 2026-04-25 13:17 | 14.16790 | 120.69312 | 6827 ft | 265 kts | 239° |
| 2026-04-25 13:17 | 14.15867 | 120.67690 | 6589 ft | 259 kts | 239° |
| 2026-04-25 13:18 | 14.14964 | 120.66094 | 6359 ft | 255 kts | 239° |
| 2026-04-25 13:18 | 14.14159 | 120.64509 | 6110 ft | 250 kts | 253° |
| 2026-04-25 13:18 | 14.14060 | 120.62763 | 5861 ft | 243 kts | 285° |
| 2026-04-25 13:18 | 14.14833 | 120.61268 | 5618 ft | 236 kts | 317° |
| 2026-04-25 13:19 | 14.16099 | 120.60202 | 5378 ft | 234 kts | 326° |
| 2026-04-25 13:19 | 14.17432 | 120.59236 | 5139 ft | 234 kts | 327° |
| 2026-04-25 13:19 | 14.18776 | 120.58306 | 5009 ft | 232 kts | 333° |
| 2026-04-25 13:19 | 14.19251 | 120.58082 | 4986 ft | 230 kts | 345° |
| 2026-04-25 13:20 | 14.21762 | 120.58484 | 4992 ft | 224 kts | 41° |
| 2026-04-25 13:20 | 14.22482 | 120.59239 | 4995 ft | 223 kts | 53° |
| 2026-04-25 13:20 | 14.23682 | 120.60971 | 4994 ft | 224 kts | 57° |
| 2026-04-25 13:20 | 14.24551 | 120.62308 | 4991 ft | 224 kts | 57° |
| 2026-04-25 13:21 | 14.25417 | 120.63651 | 4989 ft | 225 kts | 57° |
| 2026-04-25 13:21 | 14.26279 | 120.64995 | 4992 ft | 224 kts | 57° |
| 2026-04-25 13:21 | 14.27140 | 120.66344 | 4994 ft | 224 kts | 57° |
| 2026-04-25 13:21 | 14.28065 | 120.67638 | 4993 ft | 224 kts | 43° |
| 2026-04-25 13:22 | 14.29376 | 120.68520 | 4997 ft | 226 kts | 29° |
| 2026-04-25 13:22 | 14.30761 | 120.69244 | 4923 ft | 225 kts | 27° |
| 2026-04-25 13:22 | 14.32169 | 120.69957 | 4619 ft | 225 kts | 27° |
| 2026-04-25 13:23 | 14.34292 | 120.72178 | 4057 ft | 219 kts | 62° |
| 2026-04-25 13:23 | 14.35051 | 120.73545 | 4001 ft | 220 kts | 62° |
| 2026-04-25 13:23 | 14.35814 | 120.74916 | 3999 ft | 218 kts | 62° |
| 2026-04-25 13:23 | 14.36553 | 120.76240 | 3991 ft | 206 kts | 62° |
| 2026-04-25 13:24 | 14.37246 | 120.77484 | 3996 ft | 199 kts | 62° |
| 2026-04-25 13:24 | 14.37930 | 120.78711 | 4010 ft | 192 kts | 62° |
| 2026-04-25 13:24 | 14.38565 | 120.79849 | 4005 ft | 175 kts | 62° |
| 2026-04-25 13:24 | 14.39145 | 120.80889 | 3943 ft | 162 kts | 62° |
| 2026-04-25 13:25 | 14.39698 | 120.81882 | 3798 ft | 156 kts | 63° |
| 2026-04-25 13:25 | 14.40233 | 120.82843 | 3619 ft | 152 kts | 63° |
| 2026-04-25 13:25 | 14.40754 | 120.83780 | 3441 ft | 149 kts | 62° |
| 2026-04-25 13:25 | 14.41271 | 120.84708 | 3262 ft | 149 kts | 63° |
| 2026-04-25 13:26 | 14.41781 | 120.85625 | 3081 ft | 149 kts | 63° |
| 2026-04-25 13:26 | 14.42295 | 120.86548 | 2880 ft | 148 kts | 63° |
| 2026-04-25 13:26 | 14.42807 | 120.87467 | 2689 ft | 146 kts | 63° |
| 2026-04-25 13:26 | 14.43307 | 120.88365 | 2507 ft | 143 kts | 63° |
| 2026-04-25 13:27 | 14.43799 | 120.89249 | 2354 ft | 140 kts | 63° |
| 2026-04-25 13:27 | 14.44278 | 120.90110 | 2157 ft | 137 kts | 63° |
| 2026-04-25 13:27 | 14.44751 | 120.90960 | 1982 ft | 136 kts | 62° |
| 2026-04-25 13:27 | 14.45216 | 120.91796 | 1804 ft | 136 kts | 63° |
| 2026-04-25 13:28 | 14.45687 | 120.92641 | 1634 ft | 135 kts | 63° |
| 2026-04-25 13:28 | 14.45845 | 120.92926 | 1568 ft | 135 kts | 62° |
| 2026-04-25 13:28 | 14.46621 | 120.94321 | 1281 ft | 135 kts | 62° |
| 2026-04-25 13:28 | 14.47090 | 120.95165 | 1114 ft | 136 kts | 62° |
| 2026-04-25 13:29 | 14.47559 | 120.96007 | 942 ft | 135 kts | 63° |
| 2026-04-25 13:29 | 14.48035 | 120.96864 | 766 ft | 138 kts | 62° |
| 2026-04-25 13:29 | 14.48511 | 120.97720 | 585 ft | 136 kts | 65° |
| 2026-04-25 13:30 | 14.49458 | 120.99412 | 267 ft | 138 kts | 64° |
| 2026-04-25 13:30 | 14.49933 | 121.00271 | 95 ft | 137 kts | 63° |
| 2026-04-25 13:30 | 14.50361 | 121.01045 | 71 ft | 93 kts | 60° |
| 2026-04-25 13:31 | 14.50674 | 121.01606 | 65 ft | 34 kts | 58° |
| 2026-04-25 13:31 | 14.50801 | 121.01745 | 63 ft | 20 kts | 38° |
| 2026-04-25 13:31 | 14.50863 | 121.01789 | 68 ft | 8 kts | 17° |
| 2026-04-25 13:31 | 14.50903 | 121.01767 | 66 ft | 6 kts | 296° |
| 2026-04-25 13:32 | 14.50898 | 121.01733 | 60 ft | 0 kts | 242° |
| 2026-04-25 13:32 | 14.50889 | 121.01716 | 63 ft | 4 kts | 242° |
| 2026-04-25 13:33 | 14.50883 | 121.01678 | 61 ft | 7 kts | 294° |
| 2026-04-25 13:33 | 14.50914 | 121.01643 | 62 ft | 8 kts | 303° |
| 2026-04-25 13:33 | 14.50897 | 121.01577 | 63 ft | 9 kts | 239° |
| 2026-04-25 13:33 | 14.50886 | 121.01559 | 64 ft | 9 kts | 240° |
| 2026-04-25 13:34 | 14.50836 | 121.01461 | 67 ft | 8 kts | 265° |
| 2026-04-25 13:34 | 14.50856 | 121.01442 | 63 ft | 3 kts | 334° |
| 2026-04-25 13:34 | 14.50885 | 121.01426 | 64 ft | 5 kts | 331° |
| 2026-04-25 13:34 | 14.50903 | 121.01416 | 67 ft | 3 kts | 330° |
| 2026-04-25 13:35 | 14.50909 | 121.01412 | 66 ft | 0 kts | 330° |